sensor_id;sensor_type;location;lat;lon;timestamp;P1;durP1;ratioP1;P2;durP2;ratioP2
36575;SDS011;45700;50.930;5.168;2023-03-14T00:03:32;5.50;;;0.60;;
36575;SDS011;45700;50.930;5.168;2023-03-14T00:07:36;8.55;;;0.80;;
36575;SDS011;45700;50.930;5.168;2023-03-14T00:11:38;4.20;;;1.15;;
36575;SDS011;45700;50.930;5.168;2023-03-14T00:15:39;5.20;;;0.80;;
36575;SDS011;45700;50.930;5.168;2023-03-14T00:19:40;1.52;;;0.52;;
36575;SDS011;45700;50.930;5.168;2023-03-14T00:23:41;6.38;;;1.10;;
36575;SDS011;45700;50.930;5.168;2023-03-14T00:27:42;4.00;;;0.80;;
36575;SDS011;45700;50.930;5.168;2023-03-14T00:31:43;2.55;;;0.70;;
36575;SDS011;45700;50.930;5.168;2023-03-14T00:35:51;4.47;;;0.73;;
36575;SDS011;45700;50.930;5.168;2023-03-14T00:39:52;4.47;;;0.90;;
36575;SDS011;45700;50.930;5.168;2023-03-14T00:43:53;3.35;;;0.70;;
36575;SDS011;45700;50.930;5.168;2023-03-14T00:47:54;5.35;;;0.82;;
36575;SDS011;45700;50.930;5.168;2023-03-14T00:51:55;6.18;;;0.90;;
36575;SDS011;45700;50.930;5.168;2023-03-14T00:55:56;13.10;;;0.98;;
36575;SDS011;45700;50.930;5.168;2023-03-14T00:59:57;7.03;;;1.00;;
36575;SDS011;45700;50.930;5.168;2023-03-14T01:03:58;7.28;;;1.05;;
36575;SDS011;45700;50.930;5.168;2023-03-14T01:07:59;1.63;;;0.70;;
36575;SDS011;45700;50.930;5.168;2023-03-14T01:12:00;7.65;;;1.13;;
36575;SDS011;45700;50.930;5.168;2023-03-14T01:16:05;10.20;;;0.88;;
36575;SDS011;45700;50.930;5.168;2023-03-14T01:20:08;10.63;;;1.00;;
36575;SDS011;45700;50.930;5.168;2023-03-14T01:24:10;2.83;;;0.65;;
36575;SDS011;45700;50.930;5.168;2023-03-14T01:28:12;5.80;;;0.95;;
36575;SDS011;45700;50.930;5.168;2023-03-14T01:32:13;5.60;;;0.85;;
36575;SDS011;45700;50.930;5.168;2023-03-14T01:36:14;4.50;;;0.93;;
36575;SDS011;45700;50.930;5.168;2023-03-14T01:40:15;9.35;;;0.90;;
36575;SDS011;45700;50.930;5.168;2023-03-14T01:44:17;7.03;;;0.80;;
36575;SDS011;45700;50.930;5.168;2023-03-14T01:48:18;7.07;;;0.85;;
36575;SDS011;45700;50.930;5.168;2023-03-14T01:52:22;4.75;;;0.80;;
36575;SDS011;45700;50.930;5.168;2023-03-14T01:56:23;6.53;;;1.73;;
36575;SDS011;45700;50.930;5.168;2023-03-14T02:00:24;6.55;;;0.70;;
36575;SDS011;45700;50.930;5.168;2023-03-14T02:04:26;6.88;;;1.65;;
36575;SDS011;45700;50.930;5.168;2023-03-14T02:08:28;6.03;;;1.35;;
36575;SDS011;45700;50.930;5.168;2023-03-14T02:12:30;7.22;;;1.08;;
36575;SDS011;45700;50.930;5.168;2023-03-14T02:16:32;11.20;;;1.23;;
36575;SDS011;45700;50.930;5.168;2023-03-14T02:29:07;2.38;;;0.80;;
36575;SDS011;45700;50.930;5.168;2023-03-14T02:33:12;6.78;;;1.35;;
36575;SDS011;45700;50.930;5.168;2023-03-14T02:37:14;8.45;;;1.35;;
36575;SDS011;45700;50.930;5.168;2023-03-14T02:41:15;9.85;;;1.08;;
36575;SDS011;45700;50.930;5.168;2023-03-14T02:49:17;10.35;;;0.95;;
36575;SDS011;45700;50.930;5.168;2023-03-14T02:53:20;7.78;;;1.10;;
36575;SDS011;45700;50.930;5.168;2023-03-14T02:57:22;6.15;;;1.10;;
36575;SDS011;45700;50.930;5.168;2023-03-14T03:01:23;7.25;;;0.90;;
36575;SDS011;45700;50.930;5.168;2023-03-14T03:05:24;8.30;;;1.33;;
36575;SDS011;45700;50.930;5.168;2023-03-14T03:09:25;3.00;;;0.80;;
36575;SDS011;45700;50.930;5.168;2023-03-14T03:13:26;6.47;;;0.95;;
36575;SDS011;45700;50.930;5.168;2023-03-14T03:17:27;1.90;;;0.93;;
36575;SDS011;45700;50.930;5.168;2023-03-14T03:21:28;9.00;;;0.90;;
36575;SDS011;45700;50.930;5.168;2023-03-14T03:25:29;1.42;;;0.70;;
36575;SDS011;45700;50.930;5.168;2023-03-14T03:29:30;3.25;;;0.82;;
36575;SDS011;45700;50.930;5.168;2023-03-14T03:33:31;6.13;;;1.90;;
36575;SDS011;45700;50.930;5.168;2023-03-14T03:37:33;5.45;;;1.15;;
36575;SDS011;45700;50.930;5.168;2023-03-14T03:41:34;3.10;;;1.05;;
36575;SDS011;45700;50.930;5.168;2023-03-14T03:45:35;12.07;;;1.35;;
36575;SDS011;45700;50.930;5.168;2023-03-14T03:49:36;4.57;;;1.33;;
36575;SDS011;45700;50.930;5.168;2023-03-14T03:53:37;12.82;;;1.95;;
36575;SDS011;45700;50.930;5.168;2023-03-14T03:57:38;7.38;;;1.70;;
36575;SDS011;45700;50.930;5.168;2023-03-14T04:01:39;6.55;;;1.33;;
36575;SDS011;45700;50.930;5.168;2023-03-14T04:05:40;7.13;;;1.00;;
36575;SDS011;45700;50.930;5.168;2023-03-14T04:09:41;4.75;;;1.02;;
36575;SDS011;45700;50.930;5.168;2023-03-14T04:13:42;5.40;;;1.10;;
36575;SDS011;45700;50.930;5.168;2023-03-14T04:17:43;5.18;;;1.05;;
36575;SDS011;45700;50.930;5.168;2023-03-14T04:21:44;5.57;;;1.20;;
36575;SDS011;45700;50.930;5.168;2023-03-14T04:25:46;8.93;;;1.05;;
36575;SDS011;45700;50.930;5.168;2023-03-14T04:29:47;9.93;;;1.10;;
36575;SDS011;45700;50.930;5.168;2023-03-14T04:33:48;9.63;;;1.25;;
36575;SDS011;45700;50.930;5.168;2023-03-14T04:37:49;2.95;;;1.83;;
36575;SDS011;45700;50.930;5.168;2023-03-14T04:41:51;3.05;;;0.77;;
36575;SDS011;45700;50.930;5.168;2023-03-14T04:45:56;5.85;;;0.88;;
36575;SDS011;45700;50.930;5.168;2023-03-14T04:49:57;2.83;;;1.27;;
36575;SDS011;45700;50.930;5.168;2023-03-14T04:53:58;8.10;;;0.80;;
36575;SDS011;45700;50.930;5.168;2023-03-14T04:57:59;8.45;;;1.10;;
36575;SDS011;45700;50.930;5.168;2023-03-14T05:02:00;1.05;;;0.63;;
36575;SDS011;45700;50.930;5.168;2023-03-14T05:06:01;1.90;;;0.70;;
36575;SDS011;45700;50.930;5.168;2023-03-14T05:10:02;1.83;;;0.80;;
36575;SDS011;45700;50.930;5.168;2023-03-14T05:14:03;8.57;;;1.00;;
36575;SDS011;45700;50.930;5.168;2023-03-14T05:18:04;1.80;;;0.90;;
36575;SDS011;45700;50.930;5.168;2023-03-14T05:22:06;3.60;;;0.90;;
36575;SDS011;45700;50.930;5.168;2023-03-14T05:26:07;2.63;;;0.90;;
36575;SDS011;45700;50.930;5.168;2023-03-14T05:30:08;2.80;;;1.05;;
36575;SDS011;45700;50.930;5.168;2023-03-14T05:34:09;2.88;;;1.00;;
36575;SDS011;45700;50.930;5.168;2023-03-14T05:38:10;6.25;;;1.25;;
36575;SDS011;45700;50.930;5.168;2023-03-14T05:42:11;2.70;;;1.25;;
36575;SDS011;45700;50.930;5.168;2023-03-14T05:46:13;6.00;;;1.33;;
36575;SDS011;45700;50.930;5.168;2023-03-14T05:50:14;3.60;;;1.10;;
36575;SDS011;45700;50.930;5.168;2023-03-14T05:54:15;3.83;;;0.70;;
36575;SDS011;45700;50.930;5.168;2023-03-14T05:58:16;1.10;;;0.88;;
36575;SDS011;45700;50.930;5.168;2023-03-14T06:02:17;1.73;;;1.05;;
36575;SDS011;45700;50.930;5.168;2023-03-14T06:06:18;1.58;;;1.00;;
36575;SDS011;45700;50.930;5.168;2023-03-14T06:10:19;2.05;;;1.05;;
36575;SDS011;45700;50.930;5.168;2023-03-14T06:14:20;3.05;;;1.02;;
36575;SDS011;45700;50.930;5.168;2023-03-14T06:18:21;3.00;;;1.00;;
36575;SDS011;45700;50.930;5.168;2023-03-14T06:22:22;2.88;;;0.93;;
36575;SDS011;45700;50.930;5.168;2023-03-14T06:26:23;4.82;;;1.02;;
36575;SDS011;45700;50.930;5.168;2023-03-14T06:30:24;2.20;;;0.80;;
36575;SDS011;45700;50.930;5.168;2023-03-14T06:34:25;1.75;;;1.00;;
36575;SDS011;45700;50.930;5.168;2023-03-14T06:38:26;3.85;;;0.88;;
36575;SDS011;45700;50.930;5.168;2023-03-14T06:42:28;5.88;;;1.20;;
36575;SDS011;45700;50.930;5.168;2023-03-14T06:46:29;4.78;;;1.35;;
36575;SDS011;45700;50.930;5.168;2023-03-14T06:50:30;2.72;;;1.27;;
36575;SDS011;45700;50.930;5.168;2023-03-14T06:54:32;2.88;;;1.30;;
36575;SDS011;45700;50.930;5.168;2023-03-14T06:58:33;4.95;;;1.58;;
36575;SDS011;45700;50.930;5.168;2023-03-14T07:02:34;2.50;;;1.13;;
36575;SDS011;45700;50.930;5.168;2023-03-14T07:06:35;2.97;;;0.95;;
36575;SDS011;45700;50.930;5.168;2023-03-14T07:10:36;3.65;;;1.30;;
36575;SDS011;45700;50.930;5.168;2023-03-14T07:14:37;3.00;;;1.10;;
36575;SDS011;45700;50.930;5.168;2023-03-14T07:18:38;3.08;;;1.10;;
36575;SDS011;45700;50.930;5.168;2023-03-14T07:22:39;2.55;;;1.10;;
36575;SDS011;45700;50.930;5.168;2023-03-14T07:26:40;6.35;;;1.33;;
36575;SDS011;45700;50.930;5.168;2023-03-14T07:30:41;1.45;;;1.00;;
36575;SDS011;45700;50.930;5.168;2023-03-14T07:34:42;2.97;;;1.27;;
36575;SDS011;45700;50.930;5.168;2023-03-14T07:38:43;3.88;;;0.82;;
36575;SDS011;45700;50.930;5.168;2023-03-14T07:42:44;5.47;;;2.38;;
36575;SDS011;45700;50.930;5.168;2023-03-14T07:46:45;0.40;;;0.40;;
36575;SDS011;45700;50.930;5.168;2023-03-14T07:50:49;0.80;;;0.63;;
36575;SDS011;45700;50.930;5.168;2023-03-14T07:54:50;3.85;;;0.90;;
36575;SDS011;45700;50.930;5.168;2023-03-14T07:58:51;1.00;;;0.75;;
36575;SDS011;45700;50.930;5.168;2023-03-14T08:02:52;1.55;;;0.65;;
36575;SDS011;45700;50.930;5.168;2023-03-14T08:06:53;1.38;;;0.70;;
36575;SDS011;45700;50.930;5.168;2023-03-14T08:10:54;3.50;;;1.40;;
36575;SDS011;45700;50.930;5.168;2023-03-14T08:14:55;2.97;;;1.30;;
36575;SDS011;45700;50.930;5.168;2023-03-14T08:18:56;1.48;;;1.05;;
36575;SDS011;45700;50.930;5.168;2023-03-14T08:22:57;0.90;;;0.80;;
36575;SDS011;45700;50.930;5.168;2023-03-14T08:26:59;1.17;;;0.80;;
36575;SDS011;45700;50.930;5.168;2023-03-14T08:31:00;1.45;;;0.80;;
36575;SDS011;45700;50.930;5.168;2023-03-14T08:35:01;2.08;;;0.55;;
36575;SDS011;45700;50.930;5.168;2023-03-14T08:39:02;3.58;;;0.70;;
36575;SDS011;45700;50.930;5.168;2023-03-14T08:43:03;1.83;;;1.08;;
36575;SDS011;45700;50.930;5.168;2023-03-14T08:47:04;3.70;;;1.17;;
36575;SDS011;45700;50.930;5.168;2023-03-14T08:51:06;1.50;;;1.20;;
36575;SDS011;45700;50.930;5.168;2023-03-14T08:55:08;2.63;;;1.63;;
36575;SDS011;45700;50.930;5.168;2023-03-14T08:59:10;5.10;;;1.80;;
36575;SDS011;45700;50.930;5.168;2023-03-14T09:03:11;2.67;;;1.15;;
36575;SDS011;45700;50.930;5.168;2023-03-14T09:07:13;2.42;;;1.40;;
36575;SDS011;45700;50.930;5.168;2023-03-14T09:11:14;3.03;;;1.88;;
36575;SDS011;45700;50.930;5.168;2023-03-14T09:15:15;2.60;;;1.05;;
36575;SDS011;45700;50.930;5.168;2023-03-14T09:19:16;4.88;;;1.30;;
36575;SDS011;45700;50.930;5.168;2023-03-14T09:23:17;6.93;;;1.67;;
36575;SDS011;45700;50.930;5.168;2023-03-14T09:27:18;3.47;;;1.23;;
36575;SDS011;45700;50.930;5.168;2023-03-14T09:31:19;1.27;;;0.60;;
36575;SDS011;45700;50.930;5.168;2023-03-14T09:35:20;1.33;;;0.40;;
36575;SDS011;45700;50.930;5.168;2023-03-14T09:39:21;1.65;;;0.40;;
36575;SDS011;45700;50.930;5.168;2023-03-14T09:43:22;2.22;;;0.70;;
36575;SDS011;45700;50.930;5.168;2023-03-14T09:47:25;1.35;;;0.90;;
36575;SDS011;45700;50.930;5.168;2023-03-14T09:51:27;4.50;;;1.00;;
36575;SDS011;45700;50.930;5.168;2023-03-14T09:55:28;0.60;;;0.50;;
36575;SDS011;45700;50.930;5.168;2023-03-14T09:59:29;3.72;;;1.15;;
36575;SDS011;45700;50.930;5.168;2023-03-14T10:03:34;2.15;;;0.90;;
36575;SDS011;45700;50.930;5.168;2023-03-14T10:07:36;3.65;;;0.88;;
36575;SDS011;45700;50.930;5.168;2023-03-14T10:11:39;2.78;;;0.90;;
36575;SDS011;45700;50.930;5.168;2023-03-14T10:15:40;2.72;;;0.70;;
36575;SDS011;45700;50.930;5.168;2023-03-14T10:19:51;2.92;;;0.90;;
36575;SDS011;45700;50.930;5.168;2023-03-14T10:23:53;2.92;;;0.43;;
36575;SDS011;45700;50.930;5.168;2023-03-14T10:27:54;0.38;;;0.30;;
36575;SDS011;45700;50.930;5.168;2023-03-14T10:31:57;1.92;;;0.30;;
36575;SDS011;45700;50.930;5.168;2023-03-14T10:36:01;2.35;;;0.35;;
36575;SDS011;45700;50.930;5.168;2023-03-14T10:40:03;0.90;;;0.40;;
36575;SDS011;45700;50.930;5.168;2023-03-14T10:44:05;3.10;;;0.38;;
36575;SDS011;45700;50.930;5.168;2023-03-14T10:56:20;1.73;;;0.28;;
36575;SDS011;45700;50.930;5.168;2023-03-14T11:00:22;1.13;;;0.80;;
36575;SDS011;45700;50.930;5.168;2023-03-14T11:08:46;1.52;;;0.88;;
36575;SDS011;45700;50.930;5.168;2023-03-14T11:17:30;1.02;;;0.90;;
36575;SDS011;45700;50.930;5.168;2023-03-14T11:29:39;1.42;;;1.00;;
36575;SDS011;45700;50.930;5.168;2023-03-14T11:33:47;3.55;;;1.20;;
36575;SDS011;45700;50.930;5.168;2023-03-14T11:42:15;2.05;;;1.42;;
36575;SDS011;45700;50.930;5.168;2023-03-14T11:46:18;2.97;;;1.17;;
36575;SDS011;45700;50.930;5.168;2023-03-14T11:50:23;1.27;;;0.90;;
36575;SDS011;45700;50.930;5.168;2023-03-14T11:54:32;2.88;;;1.52;;
36575;SDS011;45700;50.930;5.168;2023-03-14T11:58:35;0.70;;;0.68;;
36575;SDS011;45700;50.930;5.168;2023-03-14T12:06:49;1.52;;;0.82;;
36575;SDS011;45700;50.930;5.168;2023-03-14T12:10:51;1.50;;;1.00;;
36575;SDS011;45700;50.930;5.168;2023-03-14T12:14:55;1.10;;;0.80;;
36575;SDS011;45700;50.930;5.168;2023-03-14T12:18:56;1.77;;;1.00;;
36575;SDS011;45700;50.930;5.168;2023-03-14T12:23:04;1.05;;;0.90;;
36575;SDS011;45700;50.930;5.168;2023-03-14T12:27:06;1.95;;;0.95;;
36575;SDS011;45700;50.930;5.168;2023-03-14T12:43:56;4.82;;;0.75;;
36575;SDS011;45700;50.930;5.168;2023-03-14T12:48:06;1.65;;;0.75;;
36575;SDS011;45700;50.930;5.168;2023-03-14T12:52:15;7.45;;;1.10;;
36575;SDS011;45700;50.930;5.168;2023-03-14T13:00:19;3.55;;;1.15;;
36575;SDS011;45700;50.930;5.168;2023-03-14T13:04:25;5.97;;;1.75;;
36575;SDS011;45700;50.930;5.168;2023-03-14T13:08:38;7.30;;;1.48;;
36575;SDS011;45700;50.930;5.168;2023-03-14T13:17:19;6.28;;;1.13;;
36575;SDS011;45700;50.930;5.168;2023-03-14T13:21:23;4.50;;;1.27;;
36575;SDS011;45700;50.930;5.168;2023-03-14T13:25:28;4.85;;;1.02;;
36575;SDS011;45700;50.930;5.168;2023-03-14T13:29:30;4.93;;;1.00;;
36575;SDS011;45700;50.930;5.168;2023-03-14T13:33:32;2.17;;;0.70;;
36575;SDS011;45700;50.930;5.168;2023-03-14T13:37:38;4.15;;;0.90;;
36575;SDS011;45700;50.930;5.168;2023-03-14T13:41:40;2.42;;;1.42;;
36575;SDS011;45700;50.930;5.168;2023-03-14T13:45:47;2.83;;;2.08;;
36575;SDS011;45700;50.930;5.168;2023-03-14T13:49:49;10.57;;;1.52;;
36575;SDS011;45700;50.930;5.168;2023-03-14T13:53:54;3.00;;;0.73;;
36575;SDS011;45700;50.930;5.168;2023-03-14T13:57:55;4.60;;;0.85;;
36575;SDS011;45700;50.930;5.168;2023-03-14T14:01:57;5.45;;;1.08;;
36575;SDS011;45700;50.930;5.168;2023-03-14T14:05:58;3.53;;;1.70;;
36575;SDS011;45700;50.930;5.168;2023-03-14T14:09:59;1.95;;;0.88;;
36575;SDS011;45700;50.930;5.168;2023-03-14T14:14:01;4.45;;;0.93;;
36575;SDS011;45700;50.930;5.168;2023-03-14T14:18:06;4.28;;;1.17;;
36575;SDS011;45700;50.930;5.168;2023-03-14T14:22:08;4.47;;;1.17;;
36575;SDS011;45700;50.930;5.168;2023-03-14T14:26:13;7.15;;;1.48;;
36575;SDS011;45700;50.930;5.168;2023-03-14T14:34:19;9.75;;;1.20;;
36575;SDS011;45700;50.930;5.168;2023-03-14T14:38:20;9.95;;;1.05;;
36575;SDS011;45700;50.930;5.168;2023-03-14T14:42:24;13.55;;;1.27;;
36575;SDS011;45700;50.930;5.168;2023-03-14T14:46:26;6.80;;;1.75;;
36575;SDS011;45700;50.930;5.168;2023-03-14T14:54:34;12.00;;;1.50;;
36575;SDS011;45700;50.930;5.168;2023-03-14T14:58:39;9.90;;;1.17;;
36575;SDS011;45700;50.930;5.168;2023-03-14T15:02:44;11.00;;;1.20;;
36575;SDS011;45700;50.930;5.168;2023-03-14T15:06:46;10.20;;;1.27;;
36575;SDS011;45700;50.930;5.168;2023-03-14T15:10:48;19.90;;;1.38;;
36575;SDS011;45700;50.930;5.168;2023-03-14T15:14:49;8.18;;;1.25;;
36575;SDS011;45700;50.930;5.168;2023-03-14T15:18:53;11.32;;;1.95;;
36575;SDS011;45700;50.930;5.168;2023-03-14T15:22:55;3.97;;;0.60;;
36575;SDS011;45700;50.930;5.168;2023-03-14T15:26:56;4.53;;;0.80;;
36575;SDS011;45700;50.930;5.168;2023-03-14T15:30:58;4.57;;;0.75;;
36575;SDS011;45700;50.930;5.168;2023-03-14T15:34:59;5.20;;;0.63;;
36575;SDS011;45700;50.930;5.168;2023-03-14T15:39:00;3.70;;;0.75;;
36575;SDS011;45700;50.930;5.168;2023-03-14T15:43:01;1.67;;;0.52;;
36575;SDS011;45700;50.930;5.168;2023-03-14T15:47:02;1.40;;;0.30;;
36575;SDS011;45700;50.930;5.168;2023-03-14T15:51:03;1.25;;;0.77;;
36575;SDS011;45700;50.930;5.168;2023-03-14T15:55:04;4.55;;;0.77;;
36575;SDS011;45700;50.930;5.168;2023-03-14T15:59:05;1.75;;;0.60;;
36575;SDS011;45700;50.930;5.168;2023-03-14T16:03:06;7.65;;;0.80;;
36575;SDS011;45700;50.930;5.168;2023-03-14T16:07:07;6.63;;;0.85;;
36575;SDS011;45700;50.930;5.168;2023-03-14T16:11:09;6.05;;;1.08;;
36575;SDS011;45700;50.930;5.168;2023-03-14T16:15:10;4.28;;;0.90;;
36575;SDS011;45700;50.930;5.168;2023-03-14T16:19:11;3.35;;;0.73;;
36575;SDS011;45700;50.930;5.168;2023-03-14T16:23:12;2.85;;;1.10;;
36575;SDS011;45700;50.930;5.168;2023-03-14T16:27:15;5.75;;;0.70;;
36575;SDS011;45700;50.930;5.168;2023-03-14T16:31:17;2.75;;;0.55;;
36575;SDS011;45700;50.930;5.168;2023-03-14T16:35:20;4.47;;;1.33;;
36575;SDS011;45700;50.930;5.168;2023-03-14T16:39:21;4.88;;;1.48;;
36575;SDS011;45700;50.930;5.168;2023-03-14T16:43:22;4.40;;;0.65;;
36575;SDS011;45700;50.930;5.168;2023-03-14T16:47:23;7.57;;;1.02;;
36575;SDS011;45700;50.930;5.168;2023-03-14T16:51:24;2.17;;;1.02;;
36575;SDS011;45700;50.930;5.168;2023-03-14T16:55:25;4.35;;;1.10;;
36575;SDS011;45700;50.930;5.168;2023-03-14T16:59:26;4.63;;;0.80;;
36575;SDS011;45700;50.930;5.168;2023-03-14T17:03:27;5.00;;;1.45;;
36575;SDS011;45700;50.930;5.168;2023-03-14T17:07:28;7.47;;;0.90;;
36575;SDS011;45700;50.930;5.168;2023-03-14T17:11:30;15.10;;;1.33;;
36575;SDS011;45700;50.930;5.168;2023-03-14T17:15:32;3.90;;;0.90;;
36575;SDS011;45700;50.930;5.168;2023-03-14T17:19:33;8.63;;;1.27;;
36575;SDS011;45700;50.930;5.168;2023-03-14T17:23:34;4.43;;;1.02;;
36575;SDS011;45700;50.930;5.168;2023-03-14T17:27:35;9.35;;;1.38;;
36575;SDS011;45700;50.930;5.168;2023-03-14T17:31:36;2.05;;;0.80;;
36575;SDS011;45700;50.930;5.168;2023-03-14T17:35:37;9.93;;;0.90;;
36575;SDS011;45700;50.930;5.168;2023-03-14T17:39:38;9.48;;;2.63;;
36575;SDS011;45700;50.930;5.168;2023-03-14T17:43:40;6.72;;;1.17;;
36575;SDS011;45700;50.930;5.168;2023-03-14T17:47:42;5.10;;;0.82;;
36575;SDS011;45700;50.930;5.168;2023-03-14T17:51:44;4.13;;;0.88;;
36575;SDS011;45700;50.930;5.168;2023-03-14T17:55:46;12.93;;;1.77;;
36575;SDS011;45700;50.930;5.168;2023-03-14T17:59:48;3.15;;;0.73;;
36575;SDS011;45700;50.930;5.168;2023-03-14T18:03:49;6.82;;;1.00;;
36575;SDS011;45700;50.930;5.168;2023-03-14T18:07:55;3.70;;;0.52;;
36575;SDS011;45700;50.930;5.168;2023-03-14T18:11:57;3.83;;;0.98;;
36575;SDS011;45700;50.930;5.168;2023-03-14T18:15:58;5.38;;;1.17;;
36575;SDS011;45700;50.930;5.168;2023-03-14T18:19:59;3.75;;;0.80;;
36575;SDS011;45700;50.930;5.168;2023-03-14T18:24:00;4.53;;;1.08;;
36575;SDS011;45700;50.930;5.168;2023-03-14T18:28:02;5.07;;;1.10;;
36575;SDS011;45700;50.930;5.168;2023-03-14T18:32:03;6.13;;;0.90;;
36575;SDS011;45700;50.930;5.168;2023-03-14T18:36:05;10.43;;;1.55;;
36575;SDS011;45700;50.930;5.168;2023-03-14T18:40:06;4.63;;;1.40;;
36575;SDS011;45700;50.930;5.168;2023-03-14T18:44:09;6.85;;;1.48;;
36575;SDS011;45700;50.930;5.168;2023-03-14T18:48:10;7.88;;;2.20;;
36575;SDS011;45700;50.930;5.168;2023-03-14T18:52:11;5.97;;;1.92;;
36575;SDS011;45700;50.930;5.168;2023-03-14T18:56:12;5.40;;;1.38;;
36575;SDS011;45700;50.930;5.168;2023-03-14T19:00:13;2.97;;;0.90;;
36575;SDS011;45700;50.930;5.168;2023-03-14T19:04:15;7.45;;;1.70;;
36575;SDS011;45700;50.930;5.168;2023-03-14T19:08:17;6.85;;;2.05;;
36575;SDS011;45700;50.930;5.168;2023-03-14T19:12:18;15.90;;;2.05;;
36575;SDS011;45700;50.930;5.168;2023-03-14T19:16:19;6.90;;;1.98;;
36575;SDS011;45700;50.930;5.168;2023-03-14T19:20:21;6.28;;;2.50;;
36575;SDS011;45700;50.930;5.168;2023-03-14T19:24:23;12.75;;;2.13;;
36575;SDS011;45700;50.930;5.168;2023-03-14T19:28:24;10.93;;;2.20;;
36575;SDS011;45700;50.930;5.168;2023-03-14T19:32:25;7.90;;;1.63;;
36575;SDS011;45700;50.930;5.168;2023-03-14T19:36:28;6.90;;;1.73;;
36575;SDS011;45700;50.930;5.168;2023-03-14T19:40:29;5.63;;;2.28;;
36575;SDS011;45700;50.930;5.168;2023-03-14T19:44:30;6.75;;;1.90;;
36575;SDS011;45700;50.930;5.168;2023-03-14T19:48:31;8.40;;;2.17;;
36575;SDS011;45700;50.930;5.168;2023-03-14T19:52:32;9.30;;;2.33;;
36575;SDS011;45700;50.930;5.168;2023-03-14T19:56:33;18.15;;;2.55;;
36575;SDS011;45700;50.930;5.168;2023-03-14T20:00:34;23.23;;;3.03;;
36575;SDS011;45700;50.930;5.168;2023-03-14T20:04:35;13.32;;;2.05;;
36575;SDS011;45700;50.930;5.168;2023-03-14T20:08:36;9.32;;;1.83;;
36575;SDS011;45700;50.930;5.168;2023-03-14T20:12:37;12.00;;;2.08;;
36575;SDS011;45700;50.930;5.168;2023-03-14T20:16:39;10.52;;;1.98;;
36575;SDS011;45700;50.930;5.168;2023-03-14T20:20:40;6.63;;;2.05;;
36575;SDS011;45700;50.930;5.168;2023-03-14T20:24:41;8.23;;;2.22;;
36575;SDS011;45700;50.930;5.168;2023-03-14T20:28:42;8.95;;;2.45;;
36575;SDS011;45700;50.930;5.168;2023-03-14T20:32:46;14.07;;;2.42;;
36575;SDS011;45700;50.930;5.168;2023-03-14T20:36:47;7.45;;;2.08;;
36575;SDS011;45700;50.930;5.168;2023-03-14T20:40:54;5.65;;;1.77;;
36575;SDS011;45700;50.930;5.168;2023-03-14T20:44:56;9.75;;;3.05;;
36575;SDS011;45700;50.930;5.168;2023-03-14T20:48:57;8.95;;;2.45;;
36575;SDS011;45700;50.930;5.168;2023-03-14T20:52:58;6.63;;;1.85;;
36575;SDS011;45700;50.930;5.168;2023-03-14T20:57:01;6.35;;;2.00;;
36575;SDS011;45700;50.930;5.168;2023-03-14T21:01:02;5.75;;;1.55;;
36575;SDS011;45700;50.930;5.168;2023-03-14T21:05:03;5.00;;;1.98;;
36575;SDS011;45700;50.930;5.168;2023-03-14T21:09:04;8.45;;;1.77;;
36575;SDS011;45700;50.930;5.168;2023-03-14T21:13:05;11.65;;;2.45;;
36575;SDS011;45700;50.930;5.168;2023-03-14T21:17:06;8.07;;;2.20;;
36575;SDS011;45700;50.930;5.168;2023-03-14T21:21:07;9.88;;;1.90;;
36575;SDS011;45700;50.930;5.168;2023-03-14T21:25:09;7.68;;;2.55;;
36575;SDS011;45700;50.930;5.168;2023-03-14T21:29:10;12.05;;;2.38;;
36575;SDS011;45700;50.930;5.168;2023-03-14T21:33:11;6.10;;;2.42;;
36575;SDS011;45700;50.930;5.168;2023-03-14T21:37:17;15.18;;;2.83;;
36575;SDS011;45700;50.930;5.168;2023-03-14T21:41:18;12.38;;;2.63;;
36575;SDS011;45700;50.930;5.168;2023-03-14T21:45:23;7.28;;;2.80;;
36575;SDS011;45700;50.930;5.168;2023-03-14T21:49:27;11.63;;;3.13;;
36575;SDS011;45700;50.930;5.168;2023-03-14T21:53:28;8.52;;;2.90;;
36575;SDS011;45700;50.930;5.168;2023-03-14T21:57:29;9.13;;;3.15;;
36575;SDS011;45700;50.930;5.168;2023-03-14T22:01:32;12.43;;;3.33;;
36575;SDS011;45700;50.930;5.168;2023-03-14T22:05:33;11.88;;;3.03;;
36575;SDS011;45700;50.930;5.168;2023-03-14T22:09:34;13.85;;;3.85;;
36575;SDS011;45700;50.930;5.168;2023-03-14T22:13:36;15.07;;;4.45;;
36575;SDS011;45700;50.930;5.168;2023-03-14T22:17:37;11.07;;;3.80;;
36575;SDS011;45700;50.930;5.168;2023-03-14T22:21:38;7.80;;;3.97;;
36575;SDS011;45700;50.930;5.168;2023-03-14T22:25:44;11.30;;;4.00;;
36575;SDS011;45700;50.930;5.168;2023-03-14T22:29:45;11.43;;;3.70;;
36575;SDS011;45700;50.930;5.168;2023-03-14T22:33:46;18.17;;;3.95;;
36575;SDS011;45700;50.930;5.168;2023-03-14T22:37:47;20.88;;;4.10;;
36575;SDS011;45700;50.930;5.168;2023-03-14T22:41:48;10.75;;;3.75;;
36575;SDS011;45700;50.930;5.168;2023-03-14T22:45:56;17.33;;;3.63;;
36575;SDS011;45700;50.930;5.168;2023-03-14T22:49:58;11.80;;;3.70;;
36575;SDS011;45700;50.930;5.168;2023-03-14T22:53:59;12.70;;;3.97;;
36575;SDS011;45700;50.930;5.168;2023-03-14T22:58:00;9.60;;;4.03;;
36575;SDS011;45700;50.930;5.168;2023-03-14T23:02:01;9.52;;;3.70;;
36575;SDS011;45700;50.930;5.168;2023-03-14T23:06:05;10.40;;;4.32;;
36575;SDS011;45700;50.930;5.168;2023-03-14T23:10:06;16.63;;;3.88;;
36575;SDS011;45700;50.930;5.168;2023-03-14T23:14:07;7.47;;;3.90;;
36575;SDS011;45700;50.930;5.168;2023-03-14T23:18:10;13.23;;;3.92;;
36575;SDS011;45700;50.930;5.168;2023-03-14T23:22:12;12.38;;;4.15;;
36575;SDS011;45700;50.930;5.168;2023-03-14T23:26:18;8.15;;;3.22;;
36575;SDS011;45700;50.930;5.168;2023-03-14T23:30:21;9.70;;;3.70;;
36575;SDS011;45700;50.930;5.168;2023-03-14T23:34:22;10.43;;;3.65;;
36575;SDS011;45700;50.930;5.168;2023-03-14T23:38:24;13.70;;;3.92;;
36575;SDS011;45700;50.930;5.168;2023-03-14T23:42:26;17.55;;;4.28;;
36575;SDS011;45700;50.930;5.168;2023-03-14T23:46:27;8.75;;;3.60;;
36575;SDS011;45700;50.930;5.168;2023-03-14T23:50:28;12.20;;;4.38;;
36575;SDS011;45700;50.930;5.168;2023-03-14T23:54:29;12.35;;;3.83;;
36575;SDS011;45700;50.930;5.168;2023-03-14T23:58:30;10.85;;;3.70;;
